sensor_id;sensor_type;location;lat;lon;timestamp;temperature;humidity
19192;DHT22;9728;48.194;16.346;2023-07-31T00:01:40;27.60;58.20
19192;DHT22;9728;48.194;16.346;2023-07-31T00:06:44;27.60;58.20
19192;DHT22;9728;48.194;16.346;2023-07-31T00:11:47;27.60;58.10
19192;DHT22;9728;48.194;16.346;2023-07-31T00:16:52;27.60;58.10
19192;DHT22;9728;48.194;16.346;2023-07-31T00:21:56;27.50;57.90
19192;DHT22;9728;48.194;16.346;2023-07-31T00:26:59;27.50;57.90
19192;DHT22;9728;48.194;16.346;2023-07-31T00:32:05;27.50;57.80
19192;DHT22;9728;48.194;16.346;2023-07-31T00:37:09;27.50;57.90
19192;DHT22;9728;48.194;16.346;2023-07-31T00:42:12;27.50;57.80
19192;DHT22;9728;48.194;16.346;2023-07-31T00:47:17;27.50;58.50
19192;DHT22;9728;48.194;16.346;2023-07-31T00:52:21;27.50;57.80
19192;DHT22;9728;48.194;16.346;2023-07-31T00:57:25;27.50;57.80
19192;DHT22;9728;48.194;16.346;2023-07-31T01:02:29;27.40;57.70
19192;DHT22;9728;48.194;16.346;2023-07-31T01:07:40;27.40;57.80
19192;DHT22;9728;48.194;16.346;2023-07-31T01:12:45;27.40;57.90
19192;DHT22;9728;48.194;16.346;2023-07-31T01:17:52;27.30;57.90
19192;DHT22;9728;48.194;16.346;2023-07-31T01:23:22;27.30;57.90
19192;DHT22;9728;48.194;16.346;2023-07-31T01:28:33;27.30;58.00
19192;DHT22;9728;48.194;16.346;2023-07-31T01:33:41;27.20;57.90
19192;DHT22;9728;48.194;16.346;2023-07-31T01:38:45;27.20;57.90
19192;DHT22;9728;48.194;16.346;2023-07-31T01:43:50;27.20;57.90
19192;DHT22;9728;48.194;16.346;2023-07-31T01:48:54;27.20;58.00
19192;DHT22;9728;48.194;16.346;2023-07-31T01:53:58;27.10;58.00
19192;DHT22;9728;48.194;16.346;2023-07-31T01:59:03;27.10;58.00
19192;DHT22;9728;48.194;16.346;2023-07-31T02:04:06;27.10;58.10
19192;DHT22;9728;48.194;16.346;2023-07-31T02:09:11;27.10;58.10
19192;DHT22;9728;48.194;16.346;2023-07-31T02:14:16;27.00;58.10
19192;DHT22;9728;48.194;16.346;2023-07-31T02:19:20;27.00;58.10
19192;DHT22;9728;48.194;16.346;2023-07-31T02:24:23;26.90;58.10
19192;DHT22;9728;48.194;16.346;2023-07-31T02:29:28;26.90;58.20
19192;DHT22;9728;48.194;16.346;2023-07-31T02:34:32;26.90;58.20
19192;DHT22;9728;48.194;16.346;2023-07-31T02:39:35;26.90;58.30
19192;DHT22;9728;48.194;16.346;2023-07-31T02:44:40;26.90;58.30
19192;DHT22;9728;48.194;16.346;2023-07-31T02:49:43;26.80;58.30
19192;DHT22;9728;48.194;16.346;2023-07-31T02:54:47;26.80;59.00
19192;DHT22;9728;48.194;16.346;2023-07-31T02:59:52;26.70;58.30
19192;DHT22;9728;48.194;16.346;2023-07-31T03:04:55;26.70;58.40
19192;DHT22;9728;48.194;16.346;2023-07-31T03:09:59;26.70;58.30
19192;DHT22;9728;48.194;16.346;2023-07-31T03:15:05;26.70;58.40
19192;DHT22;9728;48.194;16.346;2023-07-31T03:20:10;26.70;58.50
19192;DHT22;9728;48.194;16.346;2023-07-31T03:25:13;26.60;58.50
19192;DHT22;9728;48.194;16.346;2023-07-31T03:30:19;26.60;58.50
19192;DHT22;9728;48.194;16.346;2023-07-31T03:35:22;26.60;58.60
19192;DHT22;9728;48.194;16.346;2023-07-31T03:40:26;26.60;58.60
19192;DHT22;9728;48.194;16.346;2023-07-31T03:45:30;26.60;58.70
19192;DHT22;9728;48.194;16.346;2023-07-31T03:50:34;26.60;58.80
19192;DHT22;9728;48.194;16.346;2023-07-31T03:55:37;26.60;59.00
19192;DHT22;9728;48.194;16.346;2023-07-31T04:00:42;26.50;59.00
19192;DHT22;9728;48.194;16.346;2023-07-31T04:05:46;26.50;59.30
19192;DHT22;9728;48.194;16.346;2023-07-31T04:10:49;26.50;59.30
19192;DHT22;9728;48.194;16.346;2023-07-31T04:15:54;26.50;59.40
19192;DHT22;9728;48.194;16.346;2023-07-31T04:20:58;26.50;59.60
19192;DHT22;9728;48.194;16.346;2023-07-31T04:26:03;26.50;59.60
19192;DHT22;9728;48.194;16.346;2023-07-31T04:31:08;26.50;59.70
19192;DHT22;9728;48.194;16.346;2023-07-31T04:36:12;26.40;59.70
19192;DHT22;9728;48.194;16.346;2023-07-31T04:41:15;26.40;59.80
19192;DHT22;9728;48.194;16.346;2023-07-31T04:46:20;26.40;59.80
19192;DHT22;9728;48.194;16.346;2023-07-31T04:51:23;26.40;59.80
19192;DHT22;9728;48.194;16.346;2023-07-31T04:56:27;26.40;59.70
19192;DHT22;9728;48.194;16.346;2023-07-31T05:01:32;26.40;59.70
19192;DHT22;9728;48.194;16.346;2023-07-31T05:06:36;26.40;59.70
19192;DHT22;9728;48.194;16.346;2023-07-31T05:11:40;26.40;59.60
19192;DHT22;9728;48.194;16.346;2023-07-31T05:16:46;26.40;59.60
19192;DHT22;9728;48.194;16.346;2023-07-31T05:21:50;26.50;59.50
19192;DHT22;9728;48.194;16.346;2023-07-31T05:26:53;26.50;59.50
19192;DHT22;9728;48.194;16.346;2023-07-31T05:31:58;26.50;59.60
19192;DHT22;9728;48.194;16.346;2023-07-31T05:37:01;26.50;59.40
19192;DHT22;9728;48.194;16.346;2023-07-31T05:42:05;26.50;59.30
19192;DHT22;9728;48.194;16.346;2023-07-31T05:47:10;26.50;59.30
19192;DHT22;9728;48.194;16.346;2023-07-31T05:52:14;26.60;59.30
19192;DHT22;9728;48.194;16.346;2023-07-31T05:57:17;26.60;59.30
19192;DHT22;9728;48.194;16.346;2023-07-31T06:02:22;26.70;59.30
19192;DHT22;9728;48.194;16.346;2023-07-31T06:07:26;26.70;59.30
19192;DHT22;9728;48.194;16.346;2023-07-31T06:12:29;26.70;59.30
19192;DHT22;9728;48.194;16.346;2023-07-31T06:17:34;26.80;59.30
19192;DHT22;9728;48.194;16.346;2023-07-31T06:22:38;26.90;59.20
19192;DHT22;9728;48.194;16.346;2023-07-31T06:27:41;27.00;59.10
19192;DHT22;9728;48.194;16.346;2023-07-31T06:32:46;27.10;59.00
19192;DHT22;9728;48.194;16.346;2023-07-31T06:37:50;27.10;58.70
19192;DHT22;9728;48.194;16.346;2023-07-31T06:42:53;27.20;58.50
19192;DHT22;9728;48.194;16.346;2023-07-31T06:47:58;27.20;58.30
19192;DHT22;9728;48.194;16.346;2023-07-31T06:53:03;27.20;58.00
19192;DHT22;9728;48.194;16.346;2023-07-31T06:58:07;27.20;58.10
19192;DHT22;9728;48.194;16.346;2023-07-31T07:03:12;27.30;58.80
19192;DHT22;9728;48.194;16.346;2023-07-31T07:08:17;27.30;57.90
19192;DHT22;9728;48.194;16.346;2023-07-31T07:13:20;27.30;57.70
19192;DHT22;9728;48.194;16.346;2023-07-31T07:18:25;27.40;57.30
19192;DHT22;9728;48.194;16.346;2023-07-31T07:23:29;27.40;56.90
19192;DHT22;9728;48.194;16.346;2023-07-31T07:28:33;27.50;56.80
19192;DHT22;9728;48.194;16.346;2023-07-31T07:33:37;27.60;56.30
19192;DHT22;9728;48.194;16.346;2023-07-31T07:38:41;27.70;56.00
19192;DHT22;9728;48.194;16.346;2023-07-31T07:43:44;27.80;56.10
19192;DHT22;9728;48.194;16.346;2023-07-31T07:48:49;28.00;56.10
19192;DHT22;9728;48.194;16.346;2023-07-31T07:53:53;28.10;55.80
19192;DHT22;9728;48.194;16.346;2023-07-31T07:58:57;28.20;55.70
19192;DHT22;9728;48.194;16.346;2023-07-31T08:04:02;28.30;55.60
19192;DHT22;9728;48.194;16.346;2023-07-31T08:09:05;28.50;54.70
19192;DHT22;9728;48.194;16.346;2023-07-31T08:14:10;28.50;54.70
19192;DHT22;9728;48.194;16.346;2023-07-31T08:19:16;28.60;54.80
19192;DHT22;9728;48.194;16.346;2023-07-31T08:24:20;28.70;54.10
19192;DHT22;9728;48.194;16.346;2023-07-31T08:29:25;28.80;54.30
19192;DHT22;9728;48.194;16.346;2023-07-31T08:34:30;28.90;54.10
19192;DHT22;9728;48.194;16.346;2023-07-31T08:39:33;29.00;54.10
19192;DHT22;9728;48.194;16.346;2023-07-31T08:44:37;29.20;54.10
19192;DHT22;9728;48.194;16.346;2023-07-31T08:49:43;29.30;53.60
19192;DHT22;9728;48.194;16.346;2023-07-31T08:54:49;29.50;53.00
19192;DHT22;9728;48.194;16.346;2023-07-31T08:59:53;29.70;52.90
19192;DHT22;9728;48.194;16.346;2023-07-31T09:04:58;29.80;52.80
19192;DHT22;9728;48.194;16.346;2023-07-31T09:10:02;30.00;52.40
19192;DHT22;9728;48.194;16.346;2023-07-31T09:15:06;30.10;52.50
19192;DHT22;9728;48.194;16.346;2023-07-31T09:20:23;30.20;52.20
19192;DHT22;9728;48.194;16.346;2023-07-31T09:25:26;30.30;52.00
19192;DHT22;9728;48.194;16.346;2023-07-31T09:30:31;30.40;52.10
19192;DHT22;9728;48.194;16.346;2023-07-31T09:35:36;30.50;52.00
19192;DHT22;9728;48.194;16.346;2023-07-31T09:40:41;30.60;51.70
19192;DHT22;9728;48.194;16.346;2023-07-31T09:45:45;30.70;51.80
19192;DHT22;9728;48.194;16.346;2023-07-31T09:50:50;30.80;51.50
19192;DHT22;9728;48.194;16.346;2023-07-31T09:55:54;30.90;51.40
19192;DHT22;9728;48.194;16.346;2023-07-31T10:00:59;31.00;52.10
19192;DHT22;9728;48.194;16.346;2023-07-31T10:06:06;31.10;51.10
19192;DHT22;9728;48.194;16.346;2023-07-31T10:11:11;31.30;50.40
19192;DHT22;9728;48.194;16.346;2023-07-31T10:16:16;31.50;50.60
19192;DHT22;9728;48.194;16.346;2023-07-31T10:21:22;31.60;50.40
19192;DHT22;9728;48.194;16.346;2023-07-31T10:26:26;31.90;50.30
19192;DHT22;9728;48.194;16.346;2023-07-31T10:31:29;32.20;50.10
19192;DHT22;9728;48.194;16.346;2023-07-31T10:36:34;32.40;49.70
19192;DHT22;9728;48.194;16.346;2023-07-31T10:41:38;32.60;49.20
19192;DHT22;9728;48.194;16.346;2023-07-31T10:46:45;32.90;49.30
19192;DHT22;9728;48.194;16.346;2023-07-31T10:51:50;33.10;48.50
19192;DHT22;9728;48.194;16.346;2023-07-31T10:56:53;33.40;48.30
19192;DHT22;9728;48.194;16.346;2023-07-31T11:01:57;33.60;48.30
19192;DHT22;9728;48.194;16.346;2023-07-31T11:07:05;33.90;48.10
19192;DHT22;9728;48.194;16.346;2023-07-31T11:12:12;34.10;47.70
19192;DHT22;9728;48.194;16.346;2023-07-31T11:17:16;34.30;46.90
19192;DHT22;9728;48.194;16.346;2023-07-31T11:22:21;34.50;46.70
19192;DHT22;9728;48.194;16.346;2023-07-31T11:27:27;34.60;46.10
19192;DHT22;9728;48.194;16.346;2023-07-31T11:32:31;34.70;45.40
19192;DHT22;9728;48.194;16.346;2023-07-31T11:37:43;34.80;46.00
19192;DHT22;9728;48.194;16.346;2023-07-31T11:42:47;34.90;44.50
19192;DHT22;9728;48.194;16.346;2023-07-31T11:47:51;35.10;45.80
19192;DHT22;9728;48.194;16.346;2023-07-31T11:52:59;35.20;45.70
19192;DHT22;9728;48.194;16.346;2023-07-31T11:58:04;35.40;44.40
19192;DHT22;9728;48.194;16.346;2023-07-31T12:03:08;35.60;45.00
19192;DHT22;9728;48.194;16.346;2023-07-31T12:08:13;35.70;44.70
19192;DHT22;9728;48.194;16.346;2023-07-31T12:13:21;35.80;44.40
19192;DHT22;9728;48.194;16.346;2023-07-31T12:18:27;36.00;43.40
19192;DHT22;9728;48.194;16.346;2023-07-31T12:23:33;36.10;43.70
19192;DHT22;9728;48.194;16.346;2023-07-31T12:28:37;36.10;43.40
19192;DHT22;9728;48.194;16.346;2023-07-31T12:33:41;36.20;43.20
19192;DHT22;9728;48.194;16.346;2023-07-31T12:38:47;36.30;43.00
19192;DHT22;9728;48.194;16.346;2023-07-31T12:43:50;36.30;42.60
19192;DHT22;9728;48.194;16.346;2023-07-31T12:48:54;36.40;42.40
19192;DHT22;9728;48.194;16.346;2023-07-31T12:53:59;36.40;42.00
19192;DHT22;9728;48.194;16.346;2023-07-31T12:59:02;36.50;41.60
19192;DHT22;9728;48.194;16.346;2023-07-31T13:04:06;36.50;41.70
19192;DHT22;9728;48.194;16.346;2023-07-31T13:09:12;36.60;42.00
19192;DHT22;9728;48.194;16.346;2023-07-31T13:14:15;36.70;42.40
19192;DHT22;9728;48.194;16.346;2023-07-31T13:19:19;36.90;41.90
19192;DHT22;9728;48.194;16.346;2023-07-31T13:24:24;37.00;41.80
19192;DHT22;9728;48.194;16.346;2023-07-31T13:29:28;37.20;41.40
19192;DHT22;9728;48.194;16.346;2023-07-31T13:34:32;37.30;41.40
19192;DHT22;9728;48.194;16.346;2023-07-31T13:39:36;37.40;41.20
19192;DHT22;9728;48.194;16.346;2023-07-31T13:44:41;37.60;40.50
19192;DHT22;9728;48.194;16.346;2023-07-31T13:49:44;37.60;40.30
19192;DHT22;9728;48.194;16.346;2023-07-31T13:54:49;37.60;39.80
19192;DHT22;9728;48.194;16.346;2023-07-31T13:59:52;37.70;39.50
19192;DHT22;9728;48.194;16.346;2023-07-31T14:04:56;37.60;39.60
19192;DHT22;9728;48.194;16.346;2023-07-31T14:10:02;37.50;39.30
19192;DHT22;9728;48.194;16.346;2023-07-31T14:15:07;37.50;38.90
19192;DHT22;9728;48.194;16.346;2023-07-31T14:20:11;37.40;39.10
19192;DHT22;9728;48.194;16.346;2023-07-31T14:25:17;37.30;38.90
19192;DHT22;9728;48.194;16.346;2023-07-31T14:30:21;37.10;38.70
19192;DHT22;9728;48.194;16.346;2023-07-31T14:35:25;37.10;38.80
19192;DHT22;9728;48.194;16.346;2023-07-31T14:40:30;36.80;38.60
19192;DHT22;9728;48.194;16.346;2023-07-31T14:45:33;36.70;38.50
19192;DHT22;9728;48.194;16.346;2023-07-31T14:50:37;36.50;38.70
19192;DHT22;9728;48.194;16.346;2023-07-31T14:55:42;36.30;38.90
19192;DHT22;9728;48.194;16.346;2023-07-31T15:00:45;36.20;38.90
19192;DHT22;9728;48.194;16.346;2023-07-31T15:05:49;36.10;39.10
19192;DHT22;9728;48.194;16.346;2023-07-31T15:10:54;36.00;38.90
19192;DHT22;9728;48.194;16.346;2023-07-31T15:15:59;35.90;38.80
19192;DHT22;9728;48.194;16.346;2023-07-31T15:21:03;35.70;39.10
19192;DHT22;9728;48.194;16.346;2023-07-31T15:26:10;35.50;39.00
19192;DHT22;9728;48.194;16.346;2023-07-31T15:31:14;35.40;39.00
19192;DHT22;9728;48.194;16.346;2023-07-31T15:36:17;35.30;39.20
19192;DHT22;9728;48.194;16.346;2023-07-31T15:41:22;35.10;39.10
19192;DHT22;9728;48.194;16.346;2023-07-31T15:46:27;35.00;39.10
19192;DHT22;9728;48.194;16.346;2023-07-31T15:51:31;34.90;39.30
19192;DHT22;9728;48.194;16.346;2023-07-31T15:56:35;34.80;39.40
19192;DHT22;9728;48.194;16.346;2023-07-31T16:01:39;34.70;39.20
19192;DHT22;9728;48.194;16.346;2023-07-31T16:06:43;34.60;39.50
19192;DHT22;9728;48.194;16.346;2023-07-31T16:11:48;34.50;39.50
19192;DHT22;9728;48.194;16.346;2023-07-31T16:16:51;34.50;39.60
19192;DHT22;9728;48.194;16.346;2023-07-31T16:21:56;34.40;39.90
19192;DHT22;9728;48.194;16.346;2023-07-31T16:27:01;34.30;39.90
19192;DHT22;9728;48.194;16.346;2023-07-31T16:32:05;34.20;39.90
19192;DHT22;9728;48.194;16.346;2023-07-31T16:37:13;34.20;40.20
19192;DHT22;9728;48.194;16.346;2023-07-31T16:42:18;34.10;40.30
19192;DHT22;9728;48.194;16.346;2023-07-31T16:47:21;34.00;40.40
19192;DHT22;9728;48.194;16.346;2023-07-31T16:52:25;34.00;40.70
19192;DHT22;9728;48.194;16.346;2023-07-31T16:57:31;33.90;40.80
19192;DHT22;9728;48.194;16.346;2023-07-31T17:02:34;33.90;41.10
19192;DHT22;9728;48.194;16.346;2023-07-31T17:07:38;33.80;41.10
19192;DHT22;9728;48.194;16.346;2023-07-31T17:12:43;33.80;41.30
19192;DHT22;9728;48.194;16.346;2023-07-31T17:17:51;33.70;41.40
19192;DHT22;9728;48.194;16.346;2023-07-31T17:22:54;33.60;41.50
19192;DHT22;9728;48.194;16.346;2023-07-31T17:28:00;33.60;41.60
19192;DHT22;9728;48.194;16.346;2023-07-31T17:33:04;33.50;41.70
19192;DHT22;9728;48.194;16.346;2023-07-31T17:38:08;33.50;41.90
19192;DHT22;9728;48.194;16.346;2023-07-31T17:43:14;33.50;42.10
19192;DHT22;9728;48.194;16.346;2023-07-31T17:48:19;33.30;42.10
19192;DHT22;9728;48.194;16.346;2023-07-31T17:53:23;33.30;42.40
19192;DHT22;9728;48.194;16.346;2023-07-31T17:58:29;33.30;42.60
19192;DHT22;9728;48.194;16.346;2023-07-31T18:03:33;33.20;43.40
19192;DHT22;9728;48.194;16.346;2023-07-31T18:08:39;33.10;43.00
19192;DHT22;9728;48.194;16.346;2023-07-31T18:13:44;33.00;43.10
19192;DHT22;9728;48.194;16.346;2023-07-31T18:18:51;32.90;43.50
19192;DHT22;9728;48.194;16.346;2023-07-31T18:23:57;32.90;43.70
19192;DHT22;9728;48.194;16.346;2023-07-31T18:29:03;32.80;44.00
19192;DHT22;9728;48.194;16.346;2023-07-31T18:34:08;32.80;44.50
19192;DHT22;9728;48.194;16.346;2023-07-31T18:39:13;32.70;44.80
19192;DHT22;9728;48.194;16.346;2023-07-31T18:44:19;32.60;44.90
19192;DHT22;9728;48.194;16.346;2023-07-31T18:49:24;32.60;45.20
19192;DHT22;9728;48.194;16.346;2023-07-31T18:54:29;32.50;45.40
19192;DHT22;9728;48.194;16.346;2023-07-31T18:59:34;32.40;45.60
19192;DHT22;9728;48.194;16.346;2023-07-31T19:04:39;32.40;46.30
19192;DHT22;9728;48.194;16.346;2023-07-31T19:09:43;32.30;47.00
19192;DHT22;9728;48.194;16.346;2023-07-31T19:14:56;32.20;46.40
19192;DHT22;9728;48.194;16.346;2023-07-31T19:20:01;32.10;47.00
19192;DHT22;9728;48.194;16.346;2023-07-31T19:25:06;32.10;47.00
19192;DHT22;9728;48.194;16.346;2023-07-31T19:30:12;32.00;47.10
19192;DHT22;9728;48.194;16.346;2023-07-31T19:35:17;32.00;47.60
19192;DHT22;9728;48.194;16.346;2023-07-31T19:40:21;31.90;47.50
19192;DHT22;9728;48.194;16.346;2023-07-31T19:45:29;31.80;47.70
19192;DHT22;9728;48.194;16.346;2023-07-31T19:50:34;31.80;48.00
19192;DHT22;9728;48.194;16.346;2023-07-31T19:55:39;31.70;48.00
19192;DHT22;9728;48.194;16.346;2023-07-31T20:00:46;31.60;48.10
19192;DHT22;9728;48.194;16.346;2023-07-31T20:05:50;31.60;48.40
19192;DHT22;9728;48.194;16.346;2023-07-31T20:10:55;31.60;48.30
19192;DHT22;9728;48.194;16.346;2023-07-31T20:16:04;31.50;48.30
19192;DHT22;9728;48.194;16.346;2023-07-31T20:21:09;31.40;48.40
19192;DHT22;9728;48.194;16.346;2023-07-31T20:26:13;31.40;48.30
19192;DHT22;9728;48.194;16.346;2023-07-31T20:31:19;31.30;48.30
19192;DHT22;9728;48.194;16.346;2023-07-31T20:36:24;31.20;48.50
19192;DHT22;9728;48.194;16.346;2023-07-31T20:41:29;31.20;48.40
19192;DHT22;9728;48.194;16.346;2023-07-31T20:46:35;31.10;48.40
19192;DHT22;9728;48.194;16.346;2023-07-31T20:51:39;31.00;48.50
19192;DHT22;9728;48.194;16.346;2023-07-31T20:56:46;30.90;48.50
19192;DHT22;9728;48.194;16.346;2023-07-31T21:01:53;30.80;48.50
19192;DHT22;9728;48.194;16.346;2023-07-31T21:06:56;30.80;48.60
19192;DHT22;9728;48.194;16.346;2023-07-31T21:12:00;30.70;48.50
19192;DHT22;9728;48.194;16.346;2023-07-31T21:17:05;30.70;48.60
19192;DHT22;9728;48.194;16.346;2023-07-31T21:22:09;30.60;48.90
19192;DHT22;9728;48.194;16.346;2023-07-31T21:27:13;30.50;49.10
19192;DHT22;9728;48.194;16.346;2023-07-31T21:32:17;30.50;49.30
19192;DHT22;9728;48.194;16.346;2023-07-31T21:37:21;30.50;49.60
19192;DHT22;9728;48.194;16.346;2023-07-31T21:42:24;30.40;49.80
19192;DHT22;9728;48.194;16.346;2023-07-31T21:47:29;30.30;49.80
19192;DHT22;9728;48.194;16.346;2023-07-31T21:52:33;30.30;50.00
19192;DHT22;9728;48.194;16.346;2023-07-31T21:57:36;30.20;50.00
19192;DHT22;9728;48.194;16.346;2023-07-31T22:02:41;30.20;50.20
19192;DHT22;9728;48.194;16.346;2023-07-31T22:07:45;30.10;50.40
19192;DHT22;9728;48.194;16.346;2023-07-31T22:12:49;30.00;50.50
19192;DHT22;9728;48.194;16.346;2023-07-31T22:17:54;30.00;50.70
19192;DHT22;9728;48.194;16.346;2023-07-31T22:22:58;30.00;50.90
19192;DHT22;9728;48.194;16.346;2023-07-31T22:28:01;29.90;50.90
19192;DHT22;9728;48.194;16.346;2023-07-31T22:33:22;29.80;51.00
19192;DHT22;9728;48.194;16.346;2023-07-31T22:38:26;29.80;51.30
19192;DHT22;9728;48.194;16.346;2023-07-31T22:43:29;29.70;51.30
19192;DHT22;9728;48.194;16.346;2023-07-31T22:48:34;29.70;51.50
19192;DHT22;9728;48.194;16.346;2023-07-31T22:53:38;29.60;51.70
19192;DHT22;9728;48.194;16.346;2023-07-31T22:58:41;29.60;51.80
19192;DHT22;9728;48.194;16.346;2023-07-31T23:03:46;29.50;51.90
19192;DHT22;9728;48.194;16.346;2023-07-31T23:08:50;29.50;52.20
19192;DHT22;9728;48.194;16.346;2023-07-31T23:13:53;29.40;52.00
19192;DHT22;9728;48.194;16.346;2023-07-31T23:18:58;29.40;52.20
19192;DHT22;9728;48.194;16.346;2023-07-31T23:24:02;29.40;52.50
19192;DHT22;9728;48.194;16.346;2023-07-31T23:29:05;29.30;52.40
19192;DHT22;9728;48.194;16.346;2023-07-31T23:34:10;29.20;52.40
19192;DHT22;9728;48.194;16.346;2023-07-31T23:39:13;29.20;52.70
19192;DHT22;9728;48.194;16.346;2023-07-31T23:44:17;29.10;52.70
19192;DHT22;9728;48.194;16.346;2023-07-31T23:49:22;29.10;52.80
19192;DHT22;9728;48.194;16.346;2023-07-31T23:54:25;29.10;53.10
19192;DHT22;9728;48.194;16.346;2023-07-31T23:59:29;29.00;53.10
